createdAt,value
2019-02-15T00:03:51.685Z,12.20
2019-02-15T00:08:56.985Z,12.40
2019-02-15T00:14:02.306Z,12.50
2019-02-15T00:19:12.165Z,12.30
2019-02-15T00:24:17.460Z,12.20
2019-02-15T00:29:22.776Z,12.10
2019-02-15T00:34:28.155Z,12.20
2019-02-15T00:39:33.450Z,12.90
2019-02-15T00:44:38.833Z,12.50
2019-02-15T00:49:45.984Z,13.10
2019-02-15T00:55:11.262Z,13.10
2019-02-15T01:00:20.821Z,13.60
2019-02-15T01:05:43.984Z,14.20
2019-02-15T01:10:50.900Z,13.70
2019-02-15T01:15:56.193Z,13.80
2019-02-15T01:21:01.492Z,14.00
2019-02-15T01:26:23.761Z,14.20
2019-02-15T01:31:30.704Z,13.70
2019-02-15T01:36:37.669Z,12.90
2019-02-15T01:41:44.609Z,12.80
2019-02-15T01:46:51.577Z,12.90
2019-02-15T01:51:56.890Z,12.30
2019-02-15T01:57:02.177Z,12.40
2019-02-15T02:02:07.566Z,12.30
2019-02-15T02:07:12.857Z,12.20
2019-02-15T02:12:18.148Z,12.00
2019-02-15T02:17:23.521Z,12.00
2019-02-15T02:22:28.865Z,12.20
2019-02-15T02:27:34.170Z,12.40
2019-02-15T02:32:39.452Z,12.20
2019-02-15T02:37:44.752Z,12.10
2019-02-15T02:42:50.041Z,11.90
2019-02-15T02:47:55.435Z,11.60
2019-02-15T02:53:00.730Z,11.20
2019-02-15T02:58:06.031Z,10.90
2019-02-15T03:03:11.356Z,11.50
2019-02-15T03:08:16.715Z,12.10
2019-02-15T03:13:22.092Z,12.00
2019-02-15T03:18:27.369Z,12.30
2019-02-15T03:23:32.677Z,12.40
2019-02-15T03:28:38.085Z,12.20
2019-02-15T03:33:43.435Z,12.00
2019-02-15T03:38:50.362Z,11.90
2019-02-15T03:43:55.921Z,12.00
2019-02-15T03:49:01.237Z,11.90
2019-02-15T03:54:06.535Z,12.10
2019-02-15T03:59:11.838Z,12.40
2019-02-15T04:04:17.136Z,12.50
2019-02-15T04:09:22.502Z,12.30
2019-02-15T04:14:32.848Z,12.50
2019-02-15T04:19:34.907Z,13.10
2019-02-15T04:24:40.220Z,13.10
2019-02-15T04:29:45.529Z,13.40
2019-02-15T04:34:50.839Z,13.80
2019-02-15T04:39:56.162Z,13.70
2019-02-15T04:45:01.441Z,12.90
2019-02-15T04:50:08.600Z,12.20
2019-02-15T04:55:14.185Z,11.90
2019-02-15T05:00:19.599Z,12.10
2019-02-15T05:05:25.067Z,12.60
2019-02-15T05:10:30.370Z,13.00
2019-02-15T05:15:35.665Z,13.50
2019-02-15T05:20:40.969Z,13.90
2019-02-15T05:25:46.519Z,13.00
2019-02-15T05:30:52.864Z,12.60
2019-02-15T05:35:58.243Z,12.40
2019-02-15T05:41:03.535Z,12.00
2019-02-15T05:46:08.849Z,11.70
2019-02-15T05:51:14.349Z,11.50
2019-02-15T05:56:19.761Z,11.70
2019-02-15T06:01:26.399Z,11.90
2019-02-15T06:06:31.707Z,12.00
2019-02-15T06:11:37.020Z,12.20
2019-02-15T06:16:42.740Z,12.30
2019-02-15T06:21:48.135Z,12.00
2019-02-15T06:26:53.709Z,12.00
2019-02-15T06:32:00.506Z,11.90
2019-02-15T06:37:05.810Z,11.70
2019-02-15T06:42:11.112Z,11.80
2019-02-15T06:47:16.421Z,12.10
2019-02-15T06:52:21.705Z,12.00
2019-02-15T06:57:27.015Z,12.20
2019-02-15T07:02:34.073Z,12.30
2019-02-15T07:07:39.367Z,12.60
2019-02-15T07:12:44.670Z,13.90
2019-02-15T07:17:49.956Z,15.20
2019-02-15T07:22:55.309Z,16.40
2019-02-15T07:28:00.683Z,16.20
2019-02-15T07:33:05.998Z,16.00
2019-02-15T07:38:12.130Z,16.50
2019-02-15T07:43:17.503Z,17.30
2019-02-15T07:48:22.815Z,17.70
2019-02-15T07:53:28.138Z,17.10
2019-02-15T07:58:33.431Z,17.70
2019-02-15T08:03:38.745Z,17.70
2019-02-15T08:08:44.038Z,17.50
2019-02-15T08:13:49.350Z,18.10
2019-02-15T08:18:54.666Z,18.50
2019-02-15T08:24:01.045Z,18.20
2019-02-15T08:29:06.371Z,18.30
2019-02-15T08:34:11.672Z,18.50
2019-02-15T08:39:16.975Z,18.40
2019-02-15T08:44:22.586Z,18.90
2019-02-15T08:49:27.967Z,18.80
2019-02-15T08:54:33.251Z,18.80
2019-02-15T08:59:38.613Z,19.10
2019-02-15T09:04:43.921Z,19.30
2019-02-15T09:09:49.232Z,19.20
2019-02-15T09:14:54.786Z,19.30
2019-02-15T09:20:00.272Z,19.40
2019-02-15T09:25:07.908Z,19.90
2019-02-15T09:30:14.573Z,20.40
2019-02-15T09:35:19.900Z,19.80
2019-02-15T09:40:25.417Z,18.30
2019-02-15T09:45:30.710Z,18.30
2019-02-15T09:50:36.012Z,18.50
2019-02-15T09:55:41.329Z,17.90
2019-02-15T10:00:47.137Z,18.40
2019-02-15T10:05:52.657Z,19.00
2019-02-15T10:10:58.081Z,16.90
2019-02-15T10:16:04.653Z,16.00
2019-02-15T10:21:09.961Z,15.90
2019-02-15T10:26:15.265Z,15.20
2019-02-15T10:31:20.565Z,15.20
2019-02-15T10:36:26.082Z,14.90
2019-02-15T10:41:31.378Z,15.20
2019-02-15T10:46:38.064Z,15.90
2019-02-15T10:51:43.587Z,15.60
2019-02-15T10:56:48.893Z,15.30
2019-02-15T11:01:54.197Z,15.00
2019-02-15T11:06:59.537Z,15.30
2019-02-15T11:12:04.929Z,15.10
2019-02-15T11:17:10.365Z,15.20
2019-02-15T11:22:15.657Z,15.30
2019-02-15T11:27:21.031Z,15.10
2019-02-15T11:32:26.325Z,15.20
2019-02-15T11:37:31.635Z,15.10
2019-02-15T11:42:36.956Z,15.20
2019-02-15T11:47:42.693Z,15.10
2019-02-15T11:52:48.009Z,14.80
2019-02-15T11:57:53.299Z,14.90
2019-02-15T12:02:58.607Z,14.80
2019-02-15T12:08:03.922Z,15.30
2019-02-15T12:13:09.210Z,16.00
2019-02-15T12:18:14.514Z,16.20
2019-02-15T12:23:19.807Z,15.90
2019-02-15T12:28:25.256Z,15.50
2019-02-15T12:33:30.556Z,15.40
2019-02-15T12:38:35.920Z,15.30
2019-02-15T12:43:41.229Z,15.80
2019-02-15T12:48:47.526Z,15.90
2019-02-15T12:53:52.834Z,16.30
2019-02-15T12:58:58.198Z,16.90
2019-02-15T13:04:03.713Z,16.70
2019-02-15T13:09:09.178Z,16.70
2019-02-15T13:14:14.554Z,17.00
2019-02-15T13:19:19.853Z,17.00
2019-02-15T13:24:25.167Z,17.70
2019-02-15T13:29:30.454Z,17.30
2019-02-15T13:34:35.743Z,17.90
2019-02-15T13:39:41.126Z,16.80
2019-02-15T13:44:46.514Z,16.70
2019-02-15T13:49:51.798Z,16.40
2019-02-15T13:55:00.378Z,17.10
2019-02-15T14:00:10.299Z,17.90
2019-02-15T14:05:15.792Z,18.40
2019-02-15T14:10:21.887Z,18.30
2019-02-15T14:15:27.283Z,17.50
2019-02-15T14:20:32.582Z,16.20
2019-02-15T14:25:37.953Z,16.50
2019-02-15T14:30:43.264Z,15.70
2019-02-15T14:35:48.563Z,16.80
2019-02-15T14:40:53.865Z,16.30
2019-02-15T14:45:59.233Z,17.30
2019-02-15T14:51:04.561Z,17.10
2019-02-15T14:56:09.862Z,17.00
2019-02-15T15:01:15.177Z,16.60
2019-02-15T15:06:20.558Z,15.80
2019-02-15T15:11:26.996Z,15.70
2019-02-15T15:16:32.289Z,15.50
2019-02-15T15:21:37.615Z,15.10
2019-02-15T15:26:42.974Z,15.30
2019-02-15T15:31:48.230Z,15.10
2019-02-15T15:36:54.428Z,15.00
2019-02-15T15:41:59.757Z,14.70
2019-02-15T15:47:05.929Z,14.80
2019-02-15T15:52:11.308Z,15.50
2019-02-15T15:57:16.650Z,15.90
2019-02-15T16:02:22.015Z,15.70
2019-02-15T16:07:27.323Z,15.30
2019-02-15T16:12:32.832Z,15.10
2019-02-15T16:17:38.154Z,15.10
2019-02-15T16:22:43.536Z,14.70
2019-02-15T16:27:48.864Z,14.40
2019-02-15T16:32:57.117Z,13.90
2019-02-15T16:38:02.423Z,13.60
2019-02-15T16:43:08.642Z,13.60
2019-02-15T16:48:14.018Z,14.20
2019-02-15T16:53:19.322Z,14.90
2019-02-15T16:58:24.641Z,14.80
2019-02-15T17:03:30.169Z,14.90
2019-02-15T17:08:35.540Z,15.20
2019-02-15T17:13:40.829Z,15.50
2019-02-15T17:18:51.739Z,15.50
2019-02-15T17:23:53.210Z,14.50
2019-02-15T17:28:58.521Z,13.80
2019-02-15T17:34:03.833Z,13.70
2019-02-15T17:39:09.138Z,14.00
2019-02-15T17:44:14.445Z,13.30
2019-02-15T17:49:19.764Z,13.10
2019-02-15T17:54:25.071Z,13.70
2019-02-15T17:59:30.381Z,14.00
2019-02-15T18:04:35.690Z,13.80
2019-02-15T18:09:41.191Z,14.00
2019-02-15T18:14:47.607Z,13.10
2019-02-15T18:19:52.987Z,13.20
2019-02-15T18:24:58.337Z,13.30
2019-02-15T18:30:04.576Z,13.30
2019-02-15T18:35:09.953Z,13.70
2019-02-15T18:40:16.409Z,14.20
2019-02-15T18:45:22.782Z,13.90
2019-02-15T18:50:28.089Z,13.40
2019-02-15T18:55:33.397Z,12.80
2019-02-15T19:00:38.709Z,12.90
2019-02-15T19:05:44.102Z,13.30
2019-02-15T19:10:49.385Z,13.00
2019-02-15T19:15:54.679Z,12.50
2019-02-15T19:20:59.993Z,12.10
2019-02-15T19:26:05.299Z,12.40
2019-02-15T19:31:10.951Z,13.20
2019-02-15T19:36:16.250Z,13.50
2019-02-15T19:41:21.559Z,13.30
2019-02-15T19:46:26.855Z,13.10
2019-02-15T19:51:32.286Z,13.20
2019-02-15T19:56:37.652Z,13.20
2019-02-15T20:01:44.006Z,12.70
2019-02-15T20:06:49.322Z,12.30
2019-02-15T20:11:54.701Z,11.90
2019-02-15T20:17:00.035Z,11.10
2019-02-15T20:22:05.334Z,10.90
2019-02-15T20:27:10.978Z,11.40
2019-02-15T20:32:16.520Z,12.10
2019-02-15T20:37:21.997Z,12.10
2019-02-15T20:42:27.901Z,12.20
2019-02-15T20:47:33.273Z,12.40
2019-02-15T20:52:38.577Z,12.60
2019-02-15T20:57:43.867Z,12.40
2019-02-15T21:02:49.166Z,12.60
2019-02-15T21:07:54.468Z,12.40
2019-02-15T21:12:59.785Z,12.00
2019-02-15T21:18:05.099Z,12.00
2019-02-15T21:23:10.397Z,10.80
2019-02-15T21:28:15.712Z,10.90
2019-02-15T21:33:21.001Z,10.40
2019-02-15T21:38:26.461Z,10.90
2019-02-15T21:43:31.841Z,11.60
2019-02-15T21:48:37.146Z,11.90
2019-02-15T21:53:42.463Z,11.60
2019-02-15T21:58:47.759Z,11.60
2019-02-15T22:03:53.074Z,11.50
2019-02-15T22:08:58.363Z,11.60
2019-02-15T22:14:05.274Z,11.60
2019-02-15T22:19:10.842Z,11.60
2019-02-15T22:24:16.261Z,11.60
2019-02-15T22:29:21.627Z,11.70
2019-02-15T22:34:28.474Z,11.60
2019-02-15T22:39:35.646Z,11.70
2019-02-15T22:44:40.953Z,10.50
2019-02-15T22:49:46.256Z,10.70
2019-02-15T22:54:51.553Z,11.10
2019-02-15T23:00:00.973Z,11.40
2019-02-15T23:05:04.983Z,11.40
2019-02-15T23:10:12.035Z,11.60
2019-02-15T23:15:17.884Z,11.70
2019-02-15T23:20:23.429Z,11.10
2019-02-15T23:25:28.721Z,10.90
2019-02-15T23:30:34.320Z,10.70
2019-02-15T23:35:39.762Z,10.60
2019-02-15T23:40:46.139Z,10.90
2019-02-15T23:45:51.510Z,11.00
2019-02-15T23:50:57.891Z,10.70
2019-02-15T23:56:03.192Z,10.10
